Aeroporto :
LOGIN :

Iscrizione | Disclaimer

   EN    FR    IT 

 










Sommario :    VFR   VFR Marginale   IFR   IFR Intensivo   IFR Molto Intensivo
Visibilità : 
Base nubi : 
>= 8 km
>= 3000ft
5 / 8 km
1000 / 3000 ft
1500m / 5 km
500 / 1000 ft
800 / 1500m
200 / 500 ft
< 800m
< 200 ft
Simboli :   Temporali  Nebbia  Neve Forte  Precipitazioni Forti  Vento > 20 kt
SIGMETs :   Varie  Temporali  Ghiacco  Turbolenza  Onda orograficha  Ceneri Vulcaniche







- Altitudine del aeroporto : 3368 ft


LSGC - Les Eplatures

ULTIMO METAR :
  • 172250Z AUTO 26002KT 9999 NSC 17/10 Q1017

METARs OBSOLETI :
  • 172220Z AUTO 24001KT CAVOK 17/11 Q1017
  • 172150Z AUTO 26002KT CAVOK 17/10 Q1017
  • 172120Z AUTO 26002KT CAVOK 17/11 Q1016
  • 172050Z AUTO VRB01KT CAVOK 17/10 Q1017
  • 172020Z AUTO VRB02KT 9999 NSC 16/10 Q1017

TAF TAF LSGC
Valido dal 17 a 15 ore il 18 a 00 ore UTC


171425Z 1715/1724 25012KT CAVOK
Nessun NOTAM noto per questo aeroporto.



MetMap, La meteo Aeronautica in un colpo d'occhio ! - Copyright ORBIFLY Dicembre 2007 - Disclaimer

ORBIFLY MET'MAP TEAM :

Programmazione e sviluppo : Alexandra Zaïnal
Concezione e sviluppo : Baudouin d'Aumeries
Co-Programmazione e sviluppo : Marc-Olivier Méhu
Supporto tecnico e logistico : Manuel Goepfert
Aiuto per la traduzione : Arnaldo La Scala

Contatto : metmap@orbifly.com




FONTI E CREDITI :

   NOAA